Time;durP1;ratioP1;P1;durP2;ratioP2;P2;SDS_P1;SDS_P2;PMS_P1;PMS_P2;Temp;Humidity;BMP_temperature;BMP_pressure;BME280_temperature;BME280_humidity;BME280_pressure;Samples;Min_cycle;Max_cycle;Signal;HPM_P1;HPM_P2
2022/10/08 00:00:31;;;;;;;4.90;2.40;;;;;;;8.64;90.96;95399.94;5066490;28;20203;-71
2022/10/08 00:02:57;;;;;;;6.78;3.20;;;;;;;8.65;90.46;95400.75;5066016;28;20261;-70
2022/10/08 00:05:25;;;;;;;5.15;2.67;;;;;;;8.68;90.07;95405.56;5066248;28;20207;-71
2022/10/08 00:07:54;;;;;;;3.47;2.65;;;;;;;8.61;90.39;95395.13;5067551;28;20272;-71
2022/10/08 00:10:21;;;;;;;3.22;2.20;;;;;;;8.61;90.30;95395.13;5085466;28;20269;-71
2022/10/08 00:12:48;;;;;;;3.97;2.72;;;;;;;8.61;90.47;95388.94;5082748;28;20206;-71
2022/10/08 00:15:15;;;;;;;5.45;2.78;;;;;;;8.61;90.53;95388.94;5065261;28;20257;-71
2022/10/08 00:17:42;;;;;;;6.00;2.85;;;;;;;8.64;90.68;95385.63;5065744;28;20199;-71
2022/10/08 00:20:09;;;;;;;5.68;2.58;;;;;;;8.66;90.58;95386.16;5066026;28;20257;-71
2022/10/08 00:22:36;;;;;;;4.57;2.35;;;;;;;8.63;90.46;95384.03;5065172;28;20597;-71
2022/10/08 00:25:05;;;;;;;3.67;2.50;;;;;;;8.61;90.81;95383.56;5064891;28;20203;-71
2022/10/08 00:27:33;;;;;;;4.57;2.60;;;;;;;8.59;90.53;95383.84;5068170;28;20697;-71
2022/10/08 00:30:00;;;;;;;3.70;2.10;;;;;;;8.59;90.93;95377.63;5056685;28;20231;-71
2022/10/08 00:32:27;;;;;;;7.95;3.33;;;;;;;8.67;90.25;95382.34;5065253;28;20740;-71
2022/10/08 00:34:53;;;;;;;6.10;2.90;;;;;;;8.57;90.71;95371.72;5065588;28;20253;-71
2022/10/08 00:37:20;;;;;;;5.43;2.28;;;;;;;8.47;91.08;95375.41;5064780;28;20211;-71
2022/10/08 00:39:47;;;;;;;4.93;2.47;;;;;;;8.40;91.68;95367.69;5065118;28;20419;-71
2022/10/08 00:42:15;;;;;;;4.70;2.75;;;;;;;8.43;91.74;95361.69;5083417;28;20271;-70
2022/10/08 00:44:50;;;;;;;5.18;2.50;;;;;;;8.41;91.44;95366.59;5084969;28;20617;-71
2022/10/08 00:47:20;;;;;;;3.85;2.55;;;;;;;8.41;91.25;95374.69;5084922;28;20234;-71
2022/10/08 00:49:48;;;;;;;5.60;2.90;;;;;;;8.44;91.14;95363.31;5084799;28;20304;-71
2022/10/08 00:52:17;;;;;;;8.68;3.60;;;;;;;8.49;90.53;95365.91;5064509;28;20223;-71
2022/10/08 00:54:44;;;;;;;5.43;3.70;;;;;;;8.33;91.57;95356.47;5078896;28;20297;-71
2022/10/08 00:57:11;;;;;;;6.30;3.38;;;;;;;8.33;91.72;95351.06;5084269;28;20198;-71
2022/10/08 00:59:39;;;;;;;12.38;6.20;;;;;;;8.32;91.76;95354.06;5085307;28;20347;-71
2022/10/08 01:02:07;;;;;;;7.03;5.03;;;;;;;8.27;91.81;95352.22;5071078;28;20203;-71
2022/10/08 01:04:34;;;;;;;8.00;5.53;;;;;;;8.25;92.50;95349.00;5071389;28;20214;-71
2022/10/08 01:07:11;;;;;;;7.97;5.88;;;;;;;8.29;92.74;95355.41;5071551;28;20322;-71
2022/10/08 01:09:45;;;;;;;9.27;5.85;;;;;;;8.23;93.46;95345.78;5071271;28;20238;-71
2022/10/08 01:12:23;;;;;;;4.15;2.53;;;;;;;8.24;93.72;95346.59;5071503;28;20567;-71
2022/10/08 01:14:56;;;;;;;4.53;2.35;;;;;;;8.13;93.73;95335.97;5071523;28;20210;-71
2022/10/08 01:17:32;;;;;;;5.65;2.95;;;;;;;8.23;94.03;95340.38;5070742;28;20209;-71
2022/10/08 01:20:16;;;;;;;6.07;2.88;;;;;;;8.18;93.57;95333.19;5070960;28;20628;-71
2022/10/08 01:23:05;;;;;;;8.85;2.83;;;;;;;8.13;93.06;95324.38;5071344;28;20229;-71
2022/10/08 01:25:40;;;;;;;9.50;3.08;;;;;;;8.03;93.15;95317.25;5071241;28;20202;-71
2022/10/08 01:28:19;;;;;;;3.45;2.50;;;;;;;8.10;93.05;95319.56;5056592;28;20199;-71
2022/10/08 01:30:50;;;;;;;5.85;2.58;;;;;;;8.09;93.32;95317.94;5050637;28;20719;-71
2022/10/08 01:33:23;;;;;;;8.82;3.58;;;;;;;8.13;92.80;95318.97;5051407;28;20207;-71
2022/10/08 01:35:56;;;;;;;3.55;2.67;;;;;;;8.08;92.76;95316.34;5050744;28;20671;-71
2022/10/08 01:38:26;;;;;;;3.80;2.38;;;;;;;7.95;93.16;95300.91;5051012;28;20226;-71
2022/10/08 01:40:58;;;;;;;6.35;2.70;;;;;;;7.94;93.44;95302.00;5051126;28;20208;-71
2022/10/08 01:43:31;;;;;;;3.78;2.45;;;;;;;7.93;93.10;95303.09;5050643;28;20290;-71
2022/10/08 01:46:03;;;;;;;3.58;2.55;;;;;;;7.98;93.44;95294.94;5050773;28;20575;-72
2022/10/08 01:48:34;;;;;;;3.42;2.33;;;;;;;7.92;92.85;95298.81;5049856;28;20249;-71
2022/10/08 01:51:07;;;;;;;3.30;2.42;;;;;;;7.60;94.74;95305.75;5051035;28;20285;-71
2022/10/08 01:53:41;;;;;;;3.95;2.58;;;;;;;7.40;95.10;95306.84;5069060;28;20264;-71
2022/10/08 01:56:12;;;;;;;5.97;3.45;;;;;;;7.32;95.54;95304.00;5070606;28;20210;-71
2022/10/08 01:58:48;;;;;;;4.72;3.55;;;;;;;7.41;95.38;95307.63;5069392;28;20256;-71
2022/10/08 02:01:22;;;;;;;5.70;2.65;;;;;;;7.51;94.85;95296.75;5070299;28;20265;-70
2022/10/08 02:06:35;;;;;;;4.47;3.30;;;;;;;7.58;93.85;95312.53;5049356;28;20234;-70
2022/10/08 02:09:03;;;;;;;8.82;3.17;;;;;;;7.60;93.66;95310.34;5050527;28;20235;-72
2022/10/08 02:11:30;;;;;;;5.35;2.90;;;;;;;7.63;93.34;95310.59;5050430;28;20269;-72
2022/10/08 02:13:58;;;;;;;4.55;2.67;;;;;;;7.64;93.26;95311.38;5049853;28;20261;-72
2022/10/08 02:16:28;;;;;;;3.40;2.42;;;;;;;7.71;93.04;95307.22;5050432;28;20277;-70
2022/10/08 02:19:04;;;;;;;6.45;3.05;;;;;;;7.74;92.73;95311.22;5062693;28;20830;-71
2022/10/08 02:21:31;;;;;;;3.22;1.45;;;;;;;7.70;92.82;95321.78;5070045;28;20240;-71
2022/10/08 02:24:10;;;;;;;3.33;2.22;;;;;;;7.72;92.16;95313.41;5070022;28;20209;-71
2022/10/08 02:26:42;;;;;;;5.63;3.00;;;;;;;7.72;92.31;95308.00;5060453;28;20644;-71
2022/10/08 02:29:19;;;;;;;5.05;2.85;;;;;;;7.68;92.41;95313.19;5050023;28;20204;-71
2022/10/08 02:31:50;;;;;;;3.20;2.72;;;;;;;7.66;92.86;95318.06;5049761;28;20307;-71
2022/10/08 02:34:23;;;;;;;2.50;1.75;;;;;;;7.70;93.20;95318.28;5049972;28;20204;-71
2022/10/08 02:36:56;;;;;;;4.70;2.50;;;;;;;7.70;93.33;95308.31;5049352;28;20613;-71
2022/10/08 02:39:28;;;;;;;4.68;2.47;;;;;;;7.57;93.54;95317.13;5049844;28;20261;-71
2022/10/08 02:42:00;;;;;;;3.92;2.40;;;;;;;7.56;93.85;95315.53;5049395;28;20264;-71
2022/10/08 02:44:33;;;;;;;2.35;1.63;;;;;;;7.65;93.31;95316.50;5050122;28;20348;-71
2022/10/08 02:47:02;;;;;;;3.15;2.30;;;;;;;7.60;93.35;95311.16;5049768;28;20254;-70
2022/10/08 02:49:33;;;;;;;4.38;2.33;;;;;;;7.54;93.97;95312.31;5049237;28;20262;-70
2022/10/08 02:52:03;;;;;;;3.75;2.78;;;;;;;7.63;94.05;95315.16;5049109;28;20219;-70
2022/10/08 02:54:35;;;;;;;3.88;2.58;;;;;;;7.65;94.70;95311.09;5061693;28;20207;-70
2022/10/08 02:57:08;;;;;;;6.13;2.30;;;;;;;7.68;95.39;95310.50;5069677;28;20260;-70
2022/10/08 02:59:37;;;;;;;3.03;2.42;;;;;;;7.77;95.11;95300.66;5054690;28;20673;-70
2022/10/08 03:02:05;;;;;;;3.08;1.92;;;;;;;7.72;95.22;95306.13;5049763;28;20630;-70
2022/10/08 03:04:37;;;;;;;9.80;2.55;;;;;;;7.65;95.56;95311.09;5049063;28;20257;-70
2022/10/08 03:07:05;;;;;;;5.22;2.97;;;;;;;7.73;95.51;95315.00;5058083;28;20234;-71
2022/10/08 03:09:37;;;;;;;5.75;2.65;;;;;;;7.67;95.16;95310.78;5068690;28;20226;-70
2022/10/08 03:12:05;;;;;;;4.38;2.17;;;;;;;7.67;95.61;95306.19;5069070;28;20605;-70
2022/10/08 03:14:38;;;;;;;5.35;2.42;;;;;;;7.59;95.01;95309.56;5069334;28;20207;-70
2022/10/08 03:17:06;;;;;;;2.63;1.98;;;;;;;7.71;94.51;95307.22;5069085;28;20684;-71
2022/10/08 03:19:34;;;;;;;4.65;2.70;;;;;;;7.80;93.78;95305.44;5068981;28;20696;-71
2022/10/08 03:22:02;;;;;;;3.38;2.28;;;;;;;7.74;93.48;95295.84;5068662;28;20260;-71
2022/10/08 03:24:28;;;;;;;7.03;2.25;;;;;;;7.74;92.95;95301.25;5068890;28;20207;-71
2022/10/08 03:26:55;;;;;;;6.30;2.40;;;;;;;7.70;92.65;95299.41;5064637;28;20211;-71
2022/10/08 03:29:22;;;;;;;2.53;2.22;;;;;;;7.71;92.45;95301.00;5049245;28;20195;-71
2022/10/08 03:31:50;;;;;;;4.55;2.58;;;;;;;7.57;92.20;95306.34;5048434;28;20254;-70
2022/10/08 03:34:17;;;;;;;3.38;2.53;;;;;;;7.55;92.67;95302.31;5049003;28;20449;-71
2022/10/08 03:36:44;;;;;;;3.53;1.95;;;;;;;7.53;92.49;95302.63;5048627;28;20262;-71
2022/10/08 03:39:11;;;;;;;3.78;2.22;;;;;;;7.45;92.74;95300.59;5048488;28;20297;-70
2022/10/08 03:41:39;;;;;;;3.13;2.00;;;;;;;7.43;93.27;95300.06;5048418;28;20671;-71
2022/10/08 03:44:07;;;;;;;3.85;2.38;;;;;;;7.44;93.17;95293.59;5048942;28;20203;-70
2022/10/08 03:46:34;;;;;;;5.03;2.60;;;;;;;7.47;93.79;95290.31;5048517;28;20199;-72
2022/10/08 03:49:02;;;;;;;4.60;2.17;;;;;;;7.38;93.58;95292.06;5048599;28;20303;-71
2022/10/08 03:51:29;;;;;;;7.95;3.25;;;;;;;7.38;94.07;95292.06;5048585;28;20235;-71
2022/10/08 03:53:56;;;;;;;4.28;2.78;;;;;;;7.38;94.07;95289.38;5056193;28;20211;-71
2022/10/08 03:56:24;;;;;;;6.25;2.88;;;;;;;7.39;94.26;95302.53;5053862;28;20241;-71
2022/10/08 03:58:53;;;;;;;3.92;2.70;;;;;;;7.35;93.93;95298.03;5049014;28;20667;-71
2022/10/08 04:01:20;;;;;;;4.50;2.88;;;;;;;7.31;94.01;95302.41;5048359;28;20207;-71
2022/10/08 04:03:47;;;;;;;4.50;2.65;;;;;;;7.31;94.13;95294.31;5048385;28;20203;-71
2022/10/08 04:06:15;;;;;;;3.72;2.35;;;;;;;7.20;94.42;95301.75;5048344;28;20292;-71
2022/10/08 04:08:43;;;;;;;4.40;2.22;;;;;;;7.26;94.68;95300.56;5048609;28;20211;-71
2022/10/08 04:11:11;;;;;;;5.28;2.45;;;;;;;7.26;94.75;95299.75;5048228;28;20227;-71
2022/10/08 04:13:38;;;;;;;5.40;3.00;;;;;;;7.17;94.97;95298.81;5048226;28;20261;-70
2022/10/08 04:16:07;;;;;;;5.20;2.78;;;;;;;7.35;95.24;95298.03;5048646;28;20261;-70
2022/10/08 04:18:35;;;;;;;3.50;2.40;;;;;;;7.23;95.58;95300.38;5048064;28;20305;-70
2022/10/08 04:21:03;;;;;;;3.30;2.42;;;;;;;7.22;97.53;95299.56;5048001;28;20310;-70
2022/10/08 04:23:33;;;;;;;4.60;2.70;;;;;;;7.24;97.68;95297.38;5047554;28;20211;-70
2022/10/08 04:26:00;;;;;;;5.72;2.85;;;;;;;7.33;97.53;95294.81;5053517;28;20191;-70
2022/10/08 04:28:27;;;;;;;4.15;2.58;;;;;;;7.36;97.13;95299.66;5051049;28;20203;-71
2022/10/08 04:30:56;;;;;;;6.20;2.80;;;;;;;7.25;96.78;95304.34;5048083;28;20238;-71
2022/10/08 04:33:23;;;;;;;4.60;2.65;;;;;;;7.28;97.02;95303.78;5047211;28;20231;-71
2022/10/08 04:35:49;;;;;;;4.93;3.33;;;;;;;7.29;97.27;95293.78;5048968;28;20688;-71
2022/10/08 04:38:16;;;;;;;7.95;2.30;;;;;;;7.32;96.94;95299.41;5052302;28;20212;-70
2022/10/08 04:40:44;;;;;;;3.28;2.58;;;;;;;7.33;96.99;95289.44;5051994;28;20257;-70
2022/10/08 04:43:11;;;;;;;5.25;3.53;;;;;;;7.42;97.11;95293.06;5051786;28;20207;-70
2022/10/08 04:45:42;;;;;;;5.10;2.88;;;;;;;7.56;97.02;95285.88;5051969;28;20249;-70
2022/10/08 04:48:10;;;;;;;8.43;5.97;;;;;;;7.65;95.81;95289.53;5052119;28;20257;-72
2022/10/08 04:50:36;;;;;;;5.32;2.78;;;;;;;7.67;95.52;95290.00;5051334;28;20239;-72
2022/10/08 04:53:03;;;;;;;4.97;2.33;;;;;;;7.99;94.97;95296.53;5051585;28;20231;-72
2022/10/08 04:55:31;;;;;;;3.85;2.70;;;;;;;8.82;93.03;95292.94;5051510;28;20204;-71
2022/10/08 04:57:59;;;;;;;4.38;3.22;;;;;;;9.94;89.32;95285.94;5051880;28;20606;-71
2022/10/08 05:00:26;;;;;;;4.47;3.25;;;;;;;11.04;84.69;95275.25;5059563;28;20604;-71
2022/10/08 05:02:53;;;;;;;7.75;4.03;;;;;;;11.74;79.13;95276.97;5071248;28;20207;-71
2022/10/08 05:05:20;;;;;;;5.10;3.10;;;;;;;11.59;76.06;95282.84;5063176;28;20685;-71
2022/10/08 05:07:47;;;;;;;4.88;2.80;;;;;;;10.91;76.60;95278.84;5051485;28;20211;-71
2022/10/08 05:10:13;;;;;;;15.82;3.50;;;;;;;10.20;79.17;95294.25;5051111;28;20635;-71
2022/10/08 05:12:40;;;;;;;6.70;3.45;;;;;;;9.70;81.37;95291.63;5050941;28;20241;-71
2022/10/08 05:15:10;;;;;;;4.88;2.92;;;;;;;9.42;82.50;95295.50;5051565;28;20207;-69
2022/10/08 05:17:37;;;;;;;7.55;4.18;;;;;;;9.08;83.68;95287.81;5051230;28;20208;-70
2022/10/08 05:20:04;;;;;;;8.07;3.88;;;;;;;8.96;84.97;95291.03;5050798;28;20200;-71
2022/10/08 05:22:31;;;;;;;5.60;2.92;;;;;;;8.90;85.83;95293.03;5051239;28;20230;-71
2022/10/08 05:24:58;;;;;;;21.85;3.20;;;;;;;9.09;86.73;95292.94;5061037;28;20206;-71
2022/10/08 05:27:24;;;;;;;4.32;2.53;;;;;;;9.32;84.33;95295.69;5061719;28;20674;-71
2022/10/08 05:29:51;;;;;;;5.05;3.25;;;;;;;10.22;83.48;95290.13;5051399;28;20203;-70
2022/10/08 05:32:20;;;;;;;7.00;3.55;;;;;;;11.79;78.41;95284.97;5051217;28;20297;-70
2022/10/08 05:34:47;;;;;;;6.05;4.53;;;;;;;13.19;72.58;95278.94;5050574;28;20211;-70
2022/10/08 05:37:13;;;;;;;10.13;5.03;;;;;;;14.10;67.66;95284.38;5051062;28;20201;-70
2022/10/08 05:39:40;;;;;;;12.18;4.80;;;;;;;14.99;64.40;95267.66;5051037;28;20610;-70
2022/10/08 05:42:07;;;;;;;8.38;4.45;;;;;;;15.80;61.67;95274.91;5054868;28;20211;-71
2022/10/08 05:44:34;;;;;;;5.82;3.78;;;;;;;16.35;59.48;95268.72;5070226;28;20207;-70
2022/10/08 05:47:01;;;;;;;6.28;3.97;;;;;;;16.81;58.40;95272.72;5071074;28;20207;-70
2022/10/08 05:49:29;;;;;;;5.03;3.08;;;;;;;17.58;56.87;95264.84;5070249;28;20717;-70
2022/10/08 05:51:55;;;;;;;6.25;3.90;;;;;;;18.42;55.40;95267.88;5066154;28;20312;-70
2022/10/08 05:54:22;;;;;;;6.30;4.40;;;;;;;18.52;54.49;95254.72;5050697;28;20211;-71
2022/10/08 05:56:49;;;;;;;8.27;4.03;;;;;;;18.51;55.77;95267.66;5050379;28;20288;-71
2022/10/08 05:59:18;;;;;;;6.10;3.90;;;;;;;18.98;52.94;95258.34;5050267;28;20328;-71
2022/10/08 06:01:45;;;;;;;6.53;4.00;;;;;;;18.43;52.50;95263.97;5050583;28;20622;-71
2022/10/08 06:04:13;;;;;;;11.93;4.97;;;;;;;18.36;54.18;95257.53;5050370;28;20249;-71
2022/10/08 06:06:42;;;;;;;6.43;4.47;;;;;;;18.04;54.97;95254.16;5050146;28;20228;-71
2022/10/08 06:09:12;;;;;;;7.90;4.35;;;;;;;18.72;53.12;95248.84;5049278;28;20629;-71
2022/10/08 06:11:39;;;;;;;12.43;4.97;;;;;;;18.52;52.82;95257.47;5050716;28;20630;-72
2022/10/08 06:14:07;;;;;;;7.63;4.47;;;;;;;19.04;51.90;95249.44;5050380;28;20748;-70
2022/10/08 06:16:35;;;;;;;8.65;4.38;;;;;;;18.68;53.11;95252.72;5049498;28;20204;-70
2022/10/08 06:19:03;;;;;;;10.32;4.78;;;;;;;18.74;51.85;95252.03;5049343;28;20257;-70
2022/10/08 06:21:30;;;;;;;7.95;4.75;;;;;;;19.46;49.89;95248.53;5049640;28;20208;-71
2022/10/08 06:24:00;;;;;;;13.48;7.00;;;;;;;19.70;49.29;95250.91;5049355;28;20258;-71
2022/10/08 06:26:31;;;;;;;11.68;5.97;;;;;;;19.12;49.94;95251.16;5050165;28;20249;-70
2022/10/08 06:28:58;;;;;;;8.80;4.32;;;;;;;19.25;50.18;95243.53;5053348;28;20249;-71
2022/10/08 06:31:25;;;;;;;7.47;4.80;;;;;;;18.33;52.43;95263.75;5050119;28;20271;-70
2022/10/08 06:33:55;;;;;;;7.78;5.07;;;;;;;18.58;51.95;95264.25;5052526;28;20203;-71
2022/10/08 06:36:24;;;;;;;8.55;4.25;;;;;;;18.61;51.53;95258.03;5069538;28;20210;-71
2022/10/08 06:38:52;;;;;;;10.77;5.22;;;;;;;19.06;50.37;95252.63;5069724;28;20211;-70
2022/10/08 06:41:21;;;;;;;10.65;5.40;;;;;;;18.98;50.77;95250.91;5069592;28;20203;-70
2022/10/08 06:43:49;;;;;;;8.60;6.20;;;;;;;18.94;50.69;95250.03;5051262;28;20207;-70
2022/10/08 06:46:16;;;;;;;10.95;6.43;;;;;;;18.89;51.26;95246.81;5048846;28;20207;-71
2022/10/08 06:48:42;;;;;;;11.45;6.63;;;;;;;18.77;51.47;95247.78;5049028;28;20263;-71
2022/10/08 06:51:11;;;;;;;10.15;6.28;;;;;;;18.74;51.89;95245.75;5050043;28;20665;-71
2022/10/08 06:53:39;;;;;;;8.63;5.13;;;;;;;18.01;53.74;95257.63;5048108;28;20204;-71
2022/10/08 06:56:09;;;;;;;11.00;7.32;;;;;;;17.39;55.26;95249.13;5048537;28;20421;-71
2022/10/08 06:58:37;;;;;;;9.85;6.50;;;;;;;17.61;55.31;95255.94;5048665;28;20630;-71
2022/10/08 07:01:06;;;;;;;11.68;7.25;;;;;;;17.20;57.18;95251.03;5048957;28;20207;-70
2022/10/08 07:03:33;;;;;;;11.57;7.03;;;;;;;17.16;56.46;95261.09;5049125;28;20609;-71
2022/10/08 07:06:01;;;;;;;12.10;7.55;;;;;;;17.18;58.08;95250.59;5049054;28;20223;-71
2022/10/08 07:08:28;;;;;;;13.10;7.22;;;;;;;16.35;59.72;95263.25;5049376;28;20569;-70
2022/10/08 07:10:55;;;;;;;12.57;6.85;;;;;;;16.31;60.63;95259.63;5048779;28;20263;-71
2022/10/08 07:13:22;;;;;;;11.55;7.25;;;;;;;16.13;60.71;95259.09;5048625;28;20203;-71
2022/10/08 07:15:50;;;;;;;13.60;7.55;;;;;;;16.59;59.96;95259.59;5047904;28;20674;-71
2022/10/08 07:18:16;;;;;;;8.90;6.43;;;;;;;15.89;61.24;95261.91;5048883;28;20227;-70
2022/10/08 07:20:43;;;;;;;10.25;7.13;;;;;;;15.32;62.90;95270.25;5048636;28;20626;-70
2022/10/08 07:23:10;;;;;;;12.15;6.93;;;;;;;15.21;63.88;95261.75;5048470;28;20203;-71
2022/10/08 07:25:37;;;;;;;11.00;6.95;;;;;;;15.40;62.47;95259.25;5048901;28;20203;-70
2022/10/08 07:28:03;;;;;;;12.75;7.68;;;;;;;15.93;61.03;95260.09;5048828;28;20199;-71
2022/10/08 07:30:31;;;;;;;13.40;7.13;;;;;;;16.27;60.59;95254.03;5048173;28;20269;-71
2022/10/08 07:33:00;;;;;;;8.75;4.25;;;;;;;15.62;61.93;95261.50;5048998;28;20226;-72
2022/10/08 07:35:29;;;;;;;8.00;4.95;;;;;;;15.42;64.20;95258.91;5049089;28;20256;-70
2022/10/08 07:37:55;;;;;;;14.55;5.05;;;;;;;15.42;62.81;95261.63;5048334;28;20208;-71
2022/10/08 07:40:22;;;;;;;13.20;5.30;;;;;;;15.87;61.94;95256.00;5048027;28;20199;-71
2022/10/08 07:42:50;;;;;;;12.90;7.63;;;;;;;15.83;62.14;95258.66;5052315;28;20261;-71
2022/10/08 07:45:17;;;;;;;12.82;7.72;;;;;;;16.09;61.78;95257.44;5048054;28;20195;-72
2022/10/08 07:47:44;;;;;;;12.70;7.22;;;;;;;16.00;62.46;95252.88;5049304;28;20253;-72
2022/10/08 07:50:13;;;;;;;11.23;7.43;;;;;;;15.78;63.05;95247.16;5047345;28;20297;-73
2022/10/08 07:52:40;;;;;;;12.35;5.20;;;;;;;16.03;62.70;95245.94;5048065;28;20227;-72
2022/10/08 07:55:07;;;;;;;7.70;4.95;;;;;;;16.22;61.97;95240.63;5048103;28;20218;-72
2022/10/08 07:57:34;;;;;;;12.05;7.25;;;;;;;16.38;61.50;95237.16;5059891;28;20199;-73
2022/10/08 08:00:00;;;;;;;14.32;8.02;;;;;;;16.48;61.84;95242.09;5068748;28;20203;-72
2022/10/08 08:02:27;;;;;;;8.80;5.85;;;;;;;16.22;61.25;95245.31;5057741;28;20204;-71
2022/10/08 08:04:54;;;;;;;9.85;5.03;;;;;;;16.45;60.48;95245.53;5047465;28;20295;-72
2022/10/08 08:07:22;;;;;;;11.95;7.82;;;;;;;16.44;60.98;95243.94;5048024;28;20257;-72
2022/10/08 08:09:49;;;;;;;13.48;8.05;;;;;;;16.64;60.32;95235.56;5062551;28;20249;-73
2022/10/08 08:12:16;;;;;;;11.35;7.53;;;;;;;16.68;59.67;95241.09;5051320;28;20230;-72
2022/10/08 08:14:43;;;;;;;11.20;7.72;;;;;;;16.97;59.42;95237.94;5051545;28;20249;-73
2022/10/08 08:17:10;;;;;;;11.50;7.10;;;;;;;16.93;59.15;95226.13;5051628;28;20188;-71
2022/10/08 08:19:39;;;;;;;12.13;6.88;;;;;;;17.39;58.34;95231.91;5049904;28;20203;-72
2022/10/08 08:22:06;;;;;;;11.45;7.15;;;;;;;17.47;57.93;95228.22;5052449;28;20192;-72
2022/10/08 08:24:34;;;;;;;15.88;5.95;;;;;;;17.28;59.69;95220.72;5052536;28;20234;-72
2022/10/08 08:27:00;;;;;;;14.18;6.60;;;;;;;17.27;58.49;95218.31;5059776;28;20199;-73
2022/10/08 08:29:27;;;;;;;10.05;6.10;;;;;;;17.14;58.99;95225.84;5046580;28;20218;-73
2022/10/08 08:31:54;;;;;;;6.43;5.18;;;;;;;17.25;58.52;95226.09;5051683;28;20758;-72
2022/10/08 08:34:23;;;;;;;7.90;5.07;;;;;;;16.67;59.81;95229.34;5045489;28;20617;-69
2022/10/08 08:36:52;;;;;;;6.70;4.70;;;;;;;16.91;59.43;95222.94;5049126;28;20740;-70
2022/10/08 08:39:21;;;;;;;6.63;4.72;;;;;;;17.05;59.55;95220.56;5051497;28;20204;-71
2022/10/08 08:42:11;;;;;;;6.57;4.95;;;;;;;17.37;58.17;95220.50;5050405;28;20228;-72
2022/10/08 08:44:40;;;;;;;12.07;5.32;;;;;;;17.70;56.76;95206.41;5050714;28;20280;-72
2022/10/08 08:47:14;;;;;;;7.80;4.50;;;;;;;17.81;56.90;95209.38;5055362;28;20663;-71
2022/10/08 08:49:42;;;;;;;7.57;4.35;;;;;;;17.71;55.25;95206.06;5053807;28;20273;-70
2022/10/08 08:52:12;;;;;;;7.30;4.22;;;;;;;17.56;55.97;95206.88;5048616;28;20293;-72
2022/10/08 08:54:39;;;;;;;7.03;4.20;;;;;;;17.75;56.42;95200.66;5051414;28;20196;-71
2022/10/08 08:57:21;;;;;;;6.68;4.18;;;;;;;17.53;56.38;95202.09;5050650;28;20192;-72
2022/10/08 08:59:52;;;;;;;6.07;4.38;;;;;;;17.61;55.99;95195.66;5047130;28;20195;-73
2022/10/08 09:02:26;;;;;;;6.88;4.25;;;;;;;17.79;56.04;95200.72;5041778;28;20231;-72
2022/10/08 09:04:57;;;;;;;6.05;4.50;;;;;;;18.02;54.53;95198.88;5069406;28;20742;-72
2022/10/08 09:07:27;;;;;;;5.82;4.07;;;;;;;18.23;54.56;95193.81;5071391;28;20203;-72
2022/10/08 09:09:58;;;;;;;6.15;4.15;;;;;;;17.83;53.11;95193.38;5070374;28;20745;-74
2022/10/08 09:12:33;;;;;;;9.15;4.03;;;;;;;17.63;53.55;95189.81;5071262;28;20614;-72
2022/10/08 09:15:01;;;;;;;5.40;3.08;;;;;;;17.82;52.94;95186.31;5039396;28;20249;-73
2022/10/08 09:17:31;;;;;;;6.20;3.30;;;;;;;18.01;52.19;95195.34;5056988;28;20639;-76
2022/10/08 09:19:57;;;;;;;4.78;3.63;;;;;;;17.96;53.63;95187.41;5038022;28;20203;-72
2022/10/08 09:22:26;;;;;;;4.93;4.13;;;;;;;17.93;53.90;95184.56;5043288;28;20199;-73
2022/10/08 09:24:58;;;;;;;7.10;4.55;;;;;;;18.02;53.47;95172.25;5049897;28;20614;-72
2022/10/08 09:27:43;;;;;;;6.53;4.75;;;;;;;18.13;54.29;95177.16;5049899;28;20203;-72
2022/10/08 09:30:28;;;;;;;8.15;4.72;;;;;;;18.20;53.47;95172.59;5044871;28;20694;-71
2022/10/08 09:32:57;;;;;;;7.90;4.15;;;;;;;18.56;54.10;95162.28;5047804;28;20224;-71
2022/10/08 09:35:24;;;;;;;6.35;4.65;;;;;;;18.66;52.96;95162.50;5050468;28;20208;-72
2022/10/08 09:37:52;;;;;;;7.93;4.70;;;;;;;18.63;52.88;95152.25;5051445;28;20207;-72
2022/10/08 09:40:21;;;;;;;6.22;4.75;;;;;;;18.26;53.75;95153.91;5048791;28;20216;-73
2022/10/08 09:43:12;;;;;;;7.18;4.50;;;;;;;18.36;52.38;95153.28;5050082;28;20254;-72
2022/10/08 09:45:41;;;;;;;7.20;4.97;;;;;;;18.55;52.64;95145.03;5030966;28;20619;-71
2022/10/08 09:48:23;;;;;;;7.05;4.57;;;;;;;18.77;51.48;95143.47;5043019;28;20230;-71
2022/10/08 09:51:00;;;;;;;5.10;3.47;;;;;;;19.08;50.39;95128.66;5047578;28;20250;-71
2022/10/08 09:53:31;;;;;;;7.53;3.67;;;;;;;18.87;49.01;95140.09;5048558;28;20637;-73
2022/10/08 09:56:00;;;;;;;5.43;3.88;;;;;;;19.00;49.87;95135.97;5046421;28;20206;-71
2022/10/08 09:58:38;;;;;;;4.10;3.13;;;;;;;19.20;49.54;95133.16;5048668;28;20208;-72
2022/10/08 10:01:12;;;;;;;4.07;3.00;;;;;;;19.36;49.03;95139.28;5045915;28;20264;-71
2022/10/08 10:03:40;;;;;;;4.15;3.00;;;;;;;19.34;48.55;95136.91;5050394;28;20573;-73
2022/10/08 10:06:07;;;;;;;4.97;3.53;;;;;;;19.16;49.09;95133.09;5048626;28;20199;-71
2022/10/08 10:08:55;;;;;;;7.05;3.65;;;;;;;19.13;48.75;95125.59;5049300;28;20273;-71
2022/10/08 10:11:29;;;;;;;8.50;3.47;;;;;;;18.96;48.22;95132.41;5047520;28;20207;-72
2022/10/08 10:14:01;;;;;;;6.68;3.38;;;;;;;19.01;48.93;95123.84;5048065;28;20675;-72
2022/10/08 10:16:35;;;;;;;4.35;3.20;;;;;;;19.03;47.50;95116.03;5047216;28;20599;-72
2022/10/08 10:19:06;;;;;;;4.07;2.92;;;;;;;19.07;47.03;95116.88;5049111;28;20196;-73
2022/10/08 10:21:38;;;;;;;3.90;2.95;;;;;;;19.20;47.85;95108.44;5048363;28;20195;-71
2022/10/08 10:24:28;;;;;;;4.95;3.50;;;;;;;19.69;46.73;95109.13;5046678;28;20598;-72
2022/10/08 10:27:00;;;;;;;4.75;3.40;;;;;;;19.93;47.47;95104.31;5049156;28;20204;-74
2022/10/08 10:29:40;;;;;;;3.72;2.65;;;;;;;19.50;44.62;95101.81;5048540;28;20737;-70
2022/10/08 10:32:12;;;;;;;3.53;2.83;;;;;;;19.11;46.05;95101.25;5045991;28;20629;-72
2022/10/08 10:34:42;;;;;;;3.45;2.60;;;;;;;18.96;47.03;95098.66;5046510;28;20732;-72
2022/10/08 10:37:14;;;;;;;4.35;2.85;;;;;;;19.19;46.67;95091.16;5047133;28;20599;-72
2022/10/08 10:39:49;;;;;;;3.10;2.80;;;;;;;19.43;45.55;95089.91;5050356;28;20196;-72
2022/10/08 10:42:21;;;;;;;4.85;3.10;;;;;;;19.38;45.82;95080.03;5050749;28;20235;-70
2022/10/08 10:44:54;;;;;;;4.00;3.08;;;;;;;19.59;46.53;95079.53;5047001;28;20691;-70
2022/10/08 10:47:23;;;;;;;8.07;2.80;;;;;;;19.39;47.46;95078.09;5048448;28;20196;-70
2022/10/08 10:49:51;;;;;;;3.63;2.65;;;;;;;19.49;46.68;95066.47;5047906;28;20223;-70
2022/10/08 10:52:38;;;;;;;4.82;3.20;;;;;;;19.41;47.45;95070.25;5048314;28;20775;-71
2022/10/08 10:55:18;;;;;;;6.50;2.83;;;;;;;18.97;47.21;95062.59;5046040;28;20195;-72
2022/10/08 10:58:08;;;;;;;4.65;3.15;;;;;;;19.30;46.86;95055.56;5046152;28;20221;-70
2022/10/08 11:00:47;;;;;;;3.63;3.03;;;;;;;19.13;46.10;95049.47;5042079;28;20210;-69
2022/10/08 11:03:23;;;;;;;4.72;2.65;;;;;;;19.40;47.25;95046.72;5049543;28;20241;-69
2022/10/08 11:05:57;;;;;;;3.17;2.88;;;;;;;19.56;47.31;95044.56;5046974;28;20212;-69
2022/10/08 11:08:36;;;;;;;5.07;2.95;;;;;;;19.58;46.79;95042.22;5046723;28;20688;-69
2022/10/08 11:11:17;;;;;;;3.92;3.03;;;;;;;19.77;45.41;95033.81;5051115;28;20244;-71
2022/10/08 11:14:11;;;;;;;3.75;2.83;;;;;;;19.58;45.59;95036.72;5045457;28;20215;-72
2022/10/08 11:16:52;;;;;;;3.92;2.88;;;;;;;19.76;45.70;95029.47;5048279;28;20195;-70
2022/10/08 11:19:36;;;;;;;4.10;2.70;;;;;;;20.21;45.50;95020.13;5048795;28;20200;-71
2022/10/08 11:22:09;;;;;;;4.30;3.08;;;;;;;20.35;45.08;95019.47;5050079;28;20191;-72
2022/10/08 11:24:57;;;;;;;5.68;2.90;;;;;;;20.26;46.22;95021.72;5046875;28;20200;-71
2022/10/08 11:27:33;;;;;;;3.75;2.67;;;;;;;19.94;44.93;95012.38;5047075;28;20200;-72
2022/10/08 11:30:05;;;;;;;5.40;3.03;;;;;;;20.04;44.97;95003.44;5047871;28;20297;-72
2022/10/08 11:32:34;;;;;;;4.13;2.67;;;;;;;20.09;45.60;95000.38;5048806;28;20218;-72
2022/10/08 11:35:18;;;;;;;5.88;2.80;;;;;;;20.16;44.90;95005.91;5047540;28;20204;-72
2022/10/08 11:37:51;;;;;;;4.30;2.35;;;;;;;19.94;43.46;94998.63;5047364;28;20455;-71
2022/10/08 11:40:25;;;;;;;5.70;2.50;;;;;;;19.56;43.85;95003.31;5048288;28;20624;-71
2022/10/08 11:43:01;;;;;;;4.22;2.60;;;;;;;19.63;44.37;94995.19;5047111;28;20226;-71
2022/10/08 11:45:38;;;;;;;5.10;2.78;;;;;;;19.77;44.38;95000.81;5049901;28;20234;-72
2022/10/08 11:48:30;;;;;;;4.40;2.55;;;;;;;19.70;45.19;94987.00;5047810;28;20565;-72
2022/10/08 11:51:28;;;;;;;4.47;2.78;;;;;;;19.70;44.46;94978.75;5046691;28;20302;-72
2022/10/08 11:54:25;;;;;;;2.47;2.28;;;;;;;19.71;43.58;94985.81;5046034;28;20273;-71